Time;durP1;ratioP1;P1;durP2;ratioP2;P2;SDS_P1;SDS_P2;PMS_P1;PMS_P2;Temp;Humidity;BMP_temperature;BMP_pressure;BME280_temperature;BME280_humidity;BME280_pressure;Samples;Min_cycle;Max_cycle;Signal;HPM_P1;HPM_P2
2023/05/09 00:08:55;;;;;;;10.7;4.7;;;;;;;3.4;80.5;99720;;;;
2023/05/09 00:18:56;;;;;;;8.6;5.9;;;;;;;3.2;81.9;99710;;;;
2023/05/09 00:29:55;;;;;;;8.6;5.9;;;;;;;3;82.4;99700;;;;
2023/05/09 00:39:55;;;;;;;10.8;5.8;;;;;;;2.8;82.3;99700;;;;
2023/05/09 00:50:55;;;;;;;10.8;5.8;;;;;;;2.6;82.6;99680;;;;
2023/05/09 01:01:55;;;;;;;10.8;5.8;;;;;;;2.5;82.9;99680;;;;
2023/05/09 01:11:55;;;;;;;11.6;6.4;;;;;;;2.4;83.7;99680;;;;
2023/05/09 01:22:55;;;;;;;11.6;6.4;;;;;;;2.4;84.2;99670;;;;
2023/05/09 01:32:55;;;;;;;11.6;6.4;;;;;;;2.4;85.2;99670;;;;
2023/05/09 01:42:55;;;;;;;12.9;6.2;;;;;;;2.4;85.8;99670;;;;
2023/05/09 01:53:55;;;;;;;12.9;6.2;;;;;;;2.4;85.7;99660;;;;
2023/05/09 02:03:55;;;;;;;12.9;6.2;;;;;;;2.3;85.3;99660;;;;
2023/05/09 02:14:55;;;;;;;7;3.9;;;;;;;2.2;85.2;99660;;;;
2023/05/09 02:25:55;;;;;;;7;3.9;;;;;;;2;85.2;99650;;;;
2023/05/09 02:36:55;;;;;;;7;3.9;;;;;;;2;85.4;99650;;;;
2023/05/09 02:46:55;;;;;;;8.6;4.9;;;;;;;2;85.4;99640;;;;
2023/05/09 02:57:55;;;;;;;8.6;4.9;;;;;;;2;85.3;99640;;;;
2023/05/09 03:07:55;;;;;;;8.6;4.9;;;;;;;1.9;86.2;99640;;;;
2023/05/09 03:18:55;;;;;;;13.8;6;;;;;;;2;88;99650;;;;
2023/05/09 03:28:55;;;;;;;13.8;6;;;;;;;2.2;89.5;99650;;;;
2023/05/09 03:39:55;;;;;;;12.9;8.3;;;;;;;2.3;89.6;99650;;;;
2023/05/09 03:50:55;;;;;;;12.9;8.3;;;;;;;2.5;89.4;99660;;;;
2023/05/09 04:01:55;;;;;;;12.9;8.3;;;;;;;2.7;89.1;99660;;;;
2023/05/09 04:11:55;;;;;;;18.2;9.4;;;;;;;2.8;88.8;99660;;;;
2023/05/09 04:22:55;;;;;;;18.2;9.4;;;;;;;3;88.8;99660;;;;
2023/05/09 04:33:57;;;;;;;18.2;9.4;;;;;;;3.3;89.1;99650;;;;
2023/05/09 04:44:55;;;;;;;20;11.7;;;;;;;3.7;88.7;99640;;;;
2023/05/09 04:54:55;;;;;;;20;11.7;;;;;;;4.2;88.3;99650;;;;
2023/05/09 05:04:55;;;;;;;20;11.7;;;;;;;4.6;87.4;99660;;;;
2023/05/09 05:14:55;;;;;;;18.7;12;;;;;;;4.9;86.6;99650;;;;
2023/05/09 05:25:55;;;;;;;18.7;12;;;;;;;5.4;86.1;99640;;;;
2023/05/09 05:36:55;;;;;;;18.7;12;;;;;;;6.1;84.4;99640;;;;
2023/05/09 05:46:55;;;;;;;20.7;12.9;;;;;;;6.5;82.6;99630;;;;
2023/05/09 05:56:55;;;;;;;20.7;12.9;;;;;;;7.1;81.6;99630;;;;
2023/05/09 06:07:55;;;;;;;20.7;12.9;;;;;;;7.6;80;99630;;;;
2023/05/09 06:17:55;;;;;;;15.5;10.9;;;;;;;8.1;78.7;99620;;;;
2023/05/09 06:28:55;;;;;;;15.5;10.9;;;;;;;8.7;76.5;99610;;;;
2023/05/09 06:38:55;;;;;;;11.8;9.2;;;;;;;9.2;75.5;99610;;;;
2023/05/09 06:49:55;;;;;;;11.8;9.2;;;;;;;9.5;73.5;99610;;;;
2023/05/09 07:00:55;;;;;;;11.8;9.2;;;;;;;9.8;72.2;99600;;;;
2023/05/09 07:11:55;;;;;;;12.4;8.5;;;;;;;10.1;71.8;99590;;;;
2023/05/09 07:22:57;;;;;;;12.4;8.5;;;;;;;10.5;68.7;99560;;;;
2023/05/09 07:32:55;;;;;;;12.4;8.5;;;;;;;10.6;67.3;99570;;;;
2023/05/09 07:42:55;;;;;;;10;6.6;;;;;;;11;68.1;99560;;;;
2023/05/09 07:52:55;;;;;;;10;6.6;;;;;;;11.2;66;99550;;;;
2023/05/09 08:03:55;;;;;;;10;6.6;;;;;;;11.4;64.3;99540;;;;
2023/05/09 08:14:55;;;;;;;9.3;5.8;;;;;;;12.2;63.1;99520;;;;
2023/05/09 08:25:55;;;;;;;9.3;5.8;;;;;;;12.2;62;99520;;;;
2023/05/09 08:35:55;;;;;;;9.3;5.8;;;;;;;12.1;62.2;99520;;;;
2023/05/09 08:46:55;;;;;;;8.5;5;;;;;;;12.7;60.4;99510;;;;
2023/05/09 08:57:55;;;;;;;8.5;5;;;;;;;13.3;59.2;99500;;;;
2023/05/09 09:07:55;;;;;;;8.5;5;;;;;;;13.4;57.4;99500;;;;
2023/05/09 09:18:55;;;;;;;7.2;4.7;;;;;;;13.6;56.8;99490;;;;
2023/05/09 09:29:55;;;;;;;7.2;4.7;;;;;;;13.7;55.9;99480;;;;
2023/05/09 09:40:55;;;;;;;8.3;4.3;;;;;;;13.3;55.7;99480;;;;
2023/05/09 09:50:55;;;;;;;8.3;4.3;;;;;;;13.6;57;99480;;;;
2023/05/09 10:01:55;;;;;;;8.3;4.3;;;;;;;13.8;55.3;99460;;;;
2023/05/09 10:12:56;;;;;;;8.5;4.2;;;;;;;14.5;54.8;99460;;;;
2023/05/09 10:22:55;;;;;;;8.5;4.2;;;;;;;14.4;53.4;99460;;;;
2023/05/09 10:33:56;;;;;;;8.5;4.2;;;;;;;14.6;52.2;99450;;;;
2023/05/09 10:43:56;;;;;;;5.7;3;;;;;;;15.4;52.4;99430;;;;
2023/05/09 10:53:56;;;;;;;5.7;3;;;;;;;16;51;99420;;;;
2023/05/09 11:03:55;;;;;;;5.7;3;;;;;;;15.9;49.1;99410;;;;
2023/05/09 11:13:56;;;;;;;8.9;3.2;;;;;;;15.8;50.1;99400;;;;
2023/05/09 11:24:55;;;;;;;8.9;3.2;;;;;;;16.4;49.5;99380;;;;
2023/05/09 11:34:55;;;;;;;8.9;3.2;;;;;;;16.5;47.4;99380;;;;
2023/05/09 11:45:56;;;;;;;6.1;3.4;;;;;;;16.5;48.8;99380;;;;
2023/05/09 11:55:55;;;;;;;6.1;3.4;;;;;;;17;46.2;99350;;;;
2023/05/09 12:05:55;;;;;;;6.1;3.4;;;;;;;17.1;45;99340;;;;
2023/05/09 12:16:55;;;;;;;6.3;3;;;;;;;16.3;45.1;99340;;;;
2023/05/09 12:26:55;;;;;;;6.3;3;;;;;;;16.8;47;99320;;;;
2023/05/09 12:37:56;;;;;;;6.3;3;;;;;;;17.1;47.1;99310;;;;
2023/05/09 12:47:55;;;;;;;8.1;3.1;;;;;;;17.5;42.4;99310;;;;
2023/05/09 12:58:55;;;;;;;8.1;3.1;;;;;;;17.6;43.6;99290;;;;
2023/05/09 13:08:55;;;;;;;4.1;2.1;;;;;;;17.4;43.8;99290;;;;
2023/05/09 13:18:56;;;;;;;4.1;2.1;;;;;;;18.1;42.5;99270;;;;
2023/05/09 13:29:55;;;;;;;4.1;2.1;;;;;;;18.5;41.9;99260;;;;
2023/05/09 13:40:55;;;;;;;4.6;2;;;;;;;17.6;41.6;99260;;;;
2023/05/09 13:50:56;;;;;;;4.6;2;;;;;;;18.1;40.9;99230;;;;
2023/05/09 14:01:57;;;;;;;4.6;2;;;;;;;18.1;40.4;99230;;;;
2023/05/09 14:11:56;;;;;;;5.6;2.3;;;;;;;18.1;42.6;99230;;;;
2023/05/09 14:21:55;;;;;;;5.6;2.3;;;;;;;18.4;41;99220;;;;
2023/05/09 14:31:56;;;;;;;5.6;2.3;;;;;;;18.4;39.2;99220;;;;
2023/05/09 14:42:56;;;;;;;5.6;2.6;;;;;;;17.9;40.1;99210;;;;
2023/05/09 14:53:55;;;;;;;5.6;2.6;;;;;;;18.3;38.4;99200;;;;
2023/05/09 15:04:55;;;;;;;5.6;2.6;;;;;;;18.7;38.4;99190;;;;
2023/05/09 15:14:56;;;;;;;4.7;2.2;;;;;;;20.4;34.3;99170;;;;
2023/05/09 15:24:55;;;;;;;4.7;2.2;;;;;;;20.8;34.2;99170;;;;
2023/05/09 15:35:55;;;;;;;4.7;2.2;;;;;;;22;32.7;99160;;;;
2023/05/09 15:45:55;;;;;;;4.2;1.7;;;;;;;21.4;33.1;99140;;;;
2023/05/09 15:56:56;;;;;;;4.2;1.7;;;;;;;22.8;31.4;99130;;;;
2023/05/09 16:06:56;;;;;;;4.2;1.7;;;;;;;20.9;32.6;99130;;;;
2023/05/09 16:17:55;;;;;;;4.1;2.1;;;;;;;18.7;36.3;99120;;;;
2023/05/09 16:28:55;;;;;;;4.1;2.1;;;;;;;17.4;38.7;99110;;;;
2023/05/09 16:38:55;;;;;;;5;2.3;;;;;;;17;39.1;99100;;;;
2023/05/09 16:48:56;;;;;;;5;2.3;;;;;;;16.8;39.3;99100;;;;
2023/05/09 16:59:55;;;;;;;5;2.3;;;;;;;16;41.8;99090;;;;
2023/05/09 17:09:55;;;;;;;5;2.6;;;;;;;16.1;42.6;99090;;;;
2023/05/09 17:20:55;;;;;;;5;2.6;;;;;;;15.6;43.5;99080;;;;
2023/05/09 17:30:57;;;;;;;5;2.6;;;;;;;14.8;45.1;99080;;;;
2023/05/09 17:40:56;;;;;;;6.6;4.2;;;;;;;14.3;46.8;99090;;;;
2023/05/09 17:50:55;;;;;;;6.6;4.2;;;;;;;13.7;47.7;99080;;;;
2023/05/09 18:00:57;;;;;;;6.6;4.2;;;;;;;13.3;48.7;99080;;;;
2023/05/09 18:10:55;;;;;;;9.5;4.5;;;;;;;12.9;49.9;99070;;;;
2023/05/09 18:20:56;;;;;;;9.5;4.5;;;;;;;12.4;51.2;99080;;;;
2023/05/09 18:31:56;;;;;;;9.5;4.5;;;;;;;11.9;52.6;99080;;;;
2023/05/09 18:41:56;;;;;;;6.4;3.4;;;;;;;11.5;53.6;99080;;;;
2023/05/09 18:52:56;;;;;;;6.4;3.4;;;;;;;11.2;54.9;99080;;;;
2023/05/09 19:02:56;;;;;;;6.4;3.4;;;;;;;10.9;55.4;99080;;;;
2023/05/09 19:13:56;;;;;;;6.6;3.2;;;;;;;10.6;56.3;99080;;;;
2023/05/09 19:23:56;;;;;;;6.6;3.2;;;;;;;10.4;56.8;99080;;;;
2023/05/09 19:34:57;;;;;;;6.6;3.2;;;;;;;10.2;57.8;99070;;;;
2023/05/09 19:45:56;;;;;;;7.1;3.5;;;;;;;10.1;57.8;99060;;;;
2023/05/09 19:55:56;;;;;;;7.1;3.5;;;;;;;9.9;58.3;99050;;;;
2023/05/09 20:06:56;;;;;;;7.1;3.5;;;;;;;9.7;58.9;99060;;;;
2023/05/09 20:16:56;;;;;;;9.5;3.7;;;;;;;9.6;60.1;99050;;;;
2023/05/09 20:27:56;;;;;;;9.5;3.7;;;;;;;9.4;60.5;99050;;;;
2023/05/09 20:37:56;;;;;;;9.5;3.7;;;;;;;9.2;60.9;99040;;;;
2023/05/09 20:47:56;;;;;;;6.9;3.8;;;;;;;9;61.1;99040;;;;
2023/05/09 20:58:58;;;;;;;6.9;3.8;;;;;;;8.8;62.3;99040;;;;
2023/05/09 21:08:56;;;;;;;7.1;3.7;;;;;;;8.5;62.7;99030;;;;
2023/05/09 21:18:56;;;;;;;7.1;3.7;;;;;;;8.3;64.3;99030;;;;
2023/05/09 21:29:56;;;;;;;7.1;3.7;;;;;;;8.1;64.6;99030;;;;
2023/05/09 21:39:56;;;;;;;9.4;4.6;;;;;;;8;65.8;99020;;;;
2023/05/09 21:49:56;;;;;;;9.4;4.6;;;;;;;7.8;65.4;99020;;;;
2023/05/09 21:59:59;;;;;;;9.4;4.6;;;;;;;7.6;65.8;99020;;;;
2023/05/09 22:09:56;;;;;;;8.7;4.5;;;;;;;7.4;65.5;99020;;;;
2023/05/09 22:20:56;;;;;;;8.7;4.5;;;;;;;7;67.1;99010;;;;
2023/05/09 22:31:56;;;;;;;8.7;4.5;;;;;;;6.7;68.8;99010;;;;
2023/05/09 22:42:56;;;;;;;11.2;5.3;;;;;;;6.4;69.2;99000;;;;
2023/05/09 22:52:56;;;;;;;11.2;5.3;;;;;;;6.1;69.4;99000;;;;
2023/05/09 23:03:56;;;;;;;11.2;5.3;;;;;;;5.8;71.4;98990;;;;
2023/05/09 23:13:56;;;;;;;9.3;5;;;;;;;5.6;72.4;98990;;;;
2023/05/09 23:23:56;;;;;;;9.3;5;;;;;;;5.4;74.1;98980;;;;
2023/05/09 23:34:56;;;;;;;9.3;5;;;;;;;5.2;76;98970;;;;
2023/05/09 23:44:56;;;;;;;11;4.7;;;;;;;5.1;76.7;98970;;;;
2023/05/09 23:54:56;;;;;;;11;4.7;;;;;;;4.9;76.2;98960;;;;
